Flight Track Log - Related Links

Times and Time Zones

All times are in EDT time to prevent confusion due to time zone crossing. See the RPA3159 flight status page for this flight to view local times or setup timezone preferences in your user account.

Time Position Orientation Groundspeed Altitude Reporting Facility
EDT Latitude Longitude Course Direction KTS MPH feet Rate Location/Type
Thu 11:27:32 AM 44.4175 -73.1406 195° South 200 230 2,700  Level Boston Center
Thu 11:28:32 AM 44.3508 -73.1658 195° South 231 266 5,100 2,850 Climbing Boston Center
Thu 11:29:00 AM 44.1127 -73.2828 195° South  Level FlightAware Approximate
Thu 11:29:32 AM 44.2839 -73.2056 203° Southwest 263 303 8,400  Level Boston Center
Thu 11:30:00 AM 44.0234 -73.3144 194° South  Level FlightAware Approximate
Thu 11:30:32 AM 44.2167 -73.2656 213° Southwest 281 323 11,000  Level Boston Center
Thu 11:31:00 AM 43.9339 -73.3443 193° South  Level FlightAware Approximate
Thu 11:31:32 AM 44.1453 -73.3283 212° Southwest 304 350 13,400  Level Boston Center
Thu 11:32:00 AM 43.8449 -73.3770 195° South  Level FlightAware Approximate
Thu 11:32:32 AM 44.0719 -73.3908 211° Southwest 309 356 15,900  Level Boston Center
Thu 11:33:32 AM 43.9942 -73.4558 211° Southwest 327 376 17,900 2,050 Climbing Boston Center
Thu 11:34:32 AM 43.9186 -73.5239 213° Southwest 327 376 20,000 1,950 Climbing Boston Center
Thu 11:35:32 AM 43.8389 -73.5886 210° Southwest 327 376 21,800 1,000 Climbing Boston Center
Thu 11:36:32 AM 43.7569 -73.6617 213° Southwest 339 390 22,000 100 Climbing Boston Center
Thu 11:37:32 AM 43.6769 -73.7289 211° Southwest 344 396 22,000  Level Boston Center
Thu 11:38:32 AM 43.6033 -73.7875 210° Southwest 344 396 22,000  Level Boston Center
Thu 11:39:32 AM 43.5192 -73.8572 211° Southwest 344 396 22,000  Level Boston Center
Thu 11:40:32 AM 43.4369 -73.9242 211° Southwest 344 396 22,000  Level Boston Center
Thu 11:41:32 AM 43.3483 -74.0019 213° Southwest 344 396 22,000  Level Boston Center
Thu 11:42:32 AM 43.2661 -74.0711 211° Southwest 344 396 22,000  Level Boston Center
Thu 11:43:32 AM 43.1858 -74.1400 212° Southwest 344 396 22,000  Level Boston Center
Thu 11:44:32 AM 43.1014 -74.2089 211° Southwest 344 396 22,000  Level Boston Center
Thu 11:45:32 AM 43.0169 -74.2775 211° Southwest 349 402 22,000  Level Boston Center
Thu 11:46:32 AM 42.9347 -74.3458 211° Southwest 349 402 22,000  Level Boston Center
Thu 11:47:32 AM 42.8500 -74.4142 211° Southwest 349 402 22,000  Level Boston Center
Thu 11:48:32 AM 42.7697 -74.4822 212° Southwest 349 402 22,000  Level Boston Center
Thu 11:49:32 AM 42.6850 -74.5500 210° Southwest 349 402 22,000  Level Boston Center
Thu 11:50:32 AM 42.6025 -74.6206 212° Southwest 354 407 22,000  Level Boston Center
Thu 11:51:32 AM 42.5200 -74.6881 211° Southwest 354 407 22,000 -250 Level Boston Center
Thu 11:52:32 AM 42.4353 -74.7553 210° Southwest 354 407 21,500 -700 Descending Boston Center
Thu 11:53:32 AM 42.3525 -74.8197 210° Southwest 354 407 20,600 -878 Descending Boston Center
Thu 11:55:16 AM 42.2128 -74.9314 211° Southwest 340 391 19,100 -589 Descending New York Center
Thu 11:56:15 AM 42.1400 -74.9883 210° Southwest 340 391 19,000 -50 Descending New York Center
Thu 11:57:15 AM 42.0606 -75.0558 212° Southwest 340 391 19,000  Level New York Center
Thu 11:58:16 AM 41.9811 -75.1233 212° Southwest 345 397 19,000  Level New York Center
Thu 11:59:16 AM 41.8931 -75.1956 211° Southwest 345 397 19,000  Level New York Center
Thu 12:00:17 PM 41.8136 -75.2569 210° Southwest 345 397 19,000 -303 Level New York Center
Thu 12:01:15 PM 41.7342 -75.3211 211° Southwest 345 397 18,400 -1,059 Descending New York Center
Thu 12:02:16 PM 41.6631 -75.3803 212° Southwest 345 397 16,900 -1,835 Descending New York Center
Thu 12:03:16 PM 41.5794 -75.4464 211° Southwest 332 382 14,700 -1,884 Descending New York Center
Thu 12:04:17 PM 41.5061 -75.5050 211° Southwest 332 382 13,100 -1,339 Descending New York Center
Thu 12:05:17 PM 41.4331 -75.5636 211° Southwest 324 373 12,000 -545 Descending New York Center
Thu 12:06:18 PM 41.3664 -75.6169 211° Southwest 319 367 12,000  Level New York Center
Thu 12:07:16 PM 41.2933 -75.6722 210° Southwest 319 367 12,000  Level New York Center
Thu 12:08:15 PM 41.2114 -75.6883 188° South 301 346 12,000  Level New York Center
Thu 12:09:15 PM 41.1156 -75.6897 181° South 311 358 12,000  Level New York Center
Thu 12:10:16 PM 41.0325 -75.6783 174° South 316 364 12,000  Level New York Center
Thu 12:11:17 PM 40.9464 -75.6444 163° South 316 364 12,000  Level New York Center
Thu 12:12:17 PM 40.8686 -75.6117 162° South 316 364 12,000  Level New York Center
Thu 12:13:17 PM 40.7867 -75.5756 162° South 316 364 12,000  Level New York Center
Thu 12:14:15 PM 40.6989 -75.5367 161° South 322 371 12,000  Level New York Center
Thu 12:15:15 PM 40.6147 -75.5033 163° South 322 371 12,000 -295 Level New York Center
Thu 12:16:17 PM 40.5306 -75.4675 162° South 322 371 11,400 -984 Descending New York Center
Thu 12:17:17 PM 40.4447 -75.4289 161° South 311 358 10,000 -1,300 Descending New York Center
Thu 12:18:17 PM 40.3733 -75.3886 157° South 293 337 8,800 -1,388 Descending New York Center
Thu 12:19:18 PM 40.3019 -75.3458 155° Southeast 282 325 7,200 -1,424 Descending New York Center
Thu 12:20:15 PM 40.2411 -75.3064 154° Southeast 277 319 6,000 -610 Descending New York Center
Thu 12:21:16 PM 40.1833 -75.2375 138° Southeast 282 325 6,000  Level New York Center
Thu 12:22:16 PM 40.1239 -75.1522 132° Southeast 282 325 6,000  Level New York Center
Thu 12:23:04 PM 40.0833 -75.0833 128° Southeast 240 276 6,000  Level Philadelphia TRACON
Thu 12:24:04 PM 40.0500 -75.0167 123° Southeast 240 276 6,000 -56 Level Philadelphia TRACON
Thu 12:24:52 PM 40.0500 -74.9500 90° East 229 264 5,900 -526 Descending Philadelphia TRACON
Thu 12:25:58 PM 40.0667 -74.8667 75° East 224 258 5,000 -818 Descending Philadelphia TRACON
Thu 12:27:04 PM 40.0167 -74.8333 153° Southeast 163 188 4,100 -476 Descending Philadelphia TRACON
Thu 12:28:04 PM 40.0000 -74.8833 246° West 162 186 4,000 -300 Descending Philadelphia TRACON
Thu 12:29:04 PM 39.9667 -74.9167 217° Southwest 161 185 3,500 -500 Descending Philadelphia TRACON
Thu 12:30:04 PM 39.9333 -74.9667 229° Southwest 161 185 3,000 -263 Descending Philadelphia TRACON
Thu 12:30:58 PM 39.9167 -75.0000 237° Southwest 163 188 3,000 -300 Level Philadelphia TRACON
Thu 12:32:04 PM 39.9000 -75.0667 252° West 164 189 2,400 -545 Descending Philadelphia TRACON

Login

Don't have an account? Register now (free) for customized features, flight alerts, and more!